createdAt,value
2022-11-15T00:02:05.758Z,12.07
2022-11-15T00:06:27.808Z,12.82
2022-11-15T00:10:57.882Z,11.77
2022-11-15T00:15:19.311Z,13.02
2022-11-15T00:19:40.752Z,11.27
2022-11-15T00:24:02.266Z,12.57
2022-11-15T00:28:25.819Z,12.30
2022-11-15T00:32:47.478Z,12.57
2022-11-15T00:37:09.248Z,12.50
2022-11-15T00:41:30.709Z,13.27
2022-11-15T00:45:53.571Z,13.98
2022-11-15T00:50:15.766Z,13.35
2022-11-15T00:54:37.731Z,13.32
2022-11-15T00:58:59.513Z,14.25
2022-11-15T01:03:22.153Z,13.73
2022-11-15T01:07:43.913Z,13.88
2022-11-15T01:12:05.743Z,15.10
2022-11-15T01:16:27.262Z,15.32
2022-11-15T01:20:50.404Z,15.55
2022-11-15T01:25:11.766Z,14.15
2022-11-15T01:29:33.448Z,15.95
2022-11-15T01:33:55.087Z,14.90
2022-11-15T01:38:18.446Z,14.35
2022-11-15T01:42:40.278Z,13.55
2022-11-15T01:47:04.279Z,13.70
2022-11-15T01:51:28.834Z,12.98
2022-11-15T01:55:52.127Z,13.27
2022-11-15T02:00:15.649Z,14.07
2022-11-15T02:04:41.947Z,13.32
2022-11-15T02:09:03.899Z,13.52
2022-11-15T02:13:26.706Z,13.60
2022-11-15T02:18:08.328Z,13.63
2022-11-15T02:22:45.142Z,13.55
2022-11-15T02:27:28.979Z,14.57
2022-11-15T02:31:59.618Z,13.25
2022-11-15T02:36:32.860Z,13.35
2022-11-15T02:40:59.562Z,13.30
2022-11-15T02:45:27.027Z,12.45
2022-11-15T02:49:52.169Z,12.07
2022-11-15T02:54:17.360Z,13.00
2022-11-15T02:58:56.174Z,12.13
2022-11-15T03:03:31.391Z,12.65
2022-11-15T03:08:02.662Z,11.95
2022-11-15T03:12:30.311Z,13.80
2022-11-15T03:16:58.573Z,14.23
2022-11-15T03:21:22.391Z,13.63
2022-11-15T03:25:50.181Z,13.85
2022-11-15T03:30:13.406Z,13.55
2022-11-15T03:34:40.234Z,13.98
2022-11-15T03:39:07.289Z,13.35
2022-11-15T03:43:38.409Z,14.60
2022-11-15T03:48:04.589Z,13.27
2022-11-15T03:52:26.402Z,15.25
2022-11-15T03:56:48.024Z,13.70
2022-11-15T04:01:11.418Z,14.45
2022-11-15T04:05:33.121Z,13.25
2022-11-15T04:10:07.383Z,13.68
2022-11-15T04:14:28.591Z,13.75
2022-11-15T04:19:11.743Z,12.93
2022-11-15T04:24:02.314Z,12.43
2022-11-15T04:28:24.247Z,14.13
2022-11-15T04:32:45.642Z,13.60
2022-11-15T04:37:14.509Z,11.98
2022-11-15T04:41:36.287Z,13.82
2022-11-15T04:45:57.582Z,13.32
2022-11-15T04:50:19.596Z,12.05
2022-11-15T04:54:43.799Z,13.27
2022-11-15T04:59:05.562Z,12.55
2022-11-15T05:03:44.323Z,12.52
2022-11-15T05:08:06.774Z,12.63
2022-11-15T05:12:30.201Z,12.45
2022-11-15T05:16:52.331Z,12.27
2022-11-15T05:21:16.976Z,13.40
2022-11-15T05:25:39.118Z,12.10
2022-11-15T05:30:02.367Z,12.07
2022-11-15T05:34:25.834Z,11.90
2022-11-15T05:38:48.001Z,12.18
2022-11-15T05:43:10.238Z,13.73
2022-11-15T05:47:35.610Z,13.40
2022-11-15T05:51:58.567Z,11.77
2022-11-15T05:56:19.991Z,12.35
2022-11-15T06:00:41.986Z,12.95
2022-11-15T06:05:06.381Z,12.90
2022-11-15T06:09:28.256Z,13.07
2022-11-15T06:13:49.704Z,13.10
2022-11-15T06:18:11.566Z,13.02
2022-11-15T06:22:34.542Z,12.68
2022-11-15T06:26:55.974Z,13.02
2022-11-15T06:31:19.162Z,12.98
2022-11-15T06:35:40.855Z,12.73
2022-11-15T06:40:03.707Z,12.45
2022-11-15T06:44:25.220Z,13.60
2022-11-15T06:48:46.544Z,12.55
2022-11-15T06:53:08.018Z,13.65
2022-11-15T06:57:30.983Z,13.15
2022-11-15T07:01:52.653Z,13.52
2022-11-15T07:06:15.296Z,12.63
2022-11-15T07:10:36.950Z,13.18
2022-11-15T07:14:59.879Z,13.05
2022-11-15T07:19:21.658Z,12.35
2022-11-15T07:23:43.352Z,13.63
2022-11-15T07:28:05.666Z,13.43
2022-11-15T07:32:28.592Z,13.13
2022-11-15T07:36:51.044Z,13.55
2022-11-15T07:41:13.608Z,13.38
2022-11-15T07:45:35.783Z,14.45
2022-11-15T07:49:58.573Z,13.70
2022-11-15T07:54:20.402Z,13.98
2022-11-15T07:58:41.982Z,13.05
2022-11-15T08:03:04.964Z,14.25
2022-11-15T08:07:31.412Z,13.70
2022-11-15T08:11:53.247Z,13.13
2022-11-15T08:16:14.840Z,14.27
2022-11-15T08:20:37.688Z,13.48
2022-11-15T08:25:00.706Z,13.98
2022-11-15T08:29:22.083Z,12.82
2022-11-15T08:33:43.672Z,12.93
2022-11-15T08:38:04.886Z,13.10
2022-11-15T08:42:27.693Z,12.40
2022-11-15T08:46:49.367Z,13.35
2022-11-15T08:51:11.365Z,12.90
2022-11-15T08:55:33.005Z,12.73
2022-11-15T08:59:55.934Z,12.90
2022-11-15T09:04:17.560Z,12.50
2022-11-15T09:08:48.245Z,12.60
2022-11-15T09:13:13.369Z,12.77
2022-11-15T09:17:36.574Z,13.32
2022-11-15T09:21:58.095Z,12.80
2022-11-15T09:26:20.485Z,13.90
2022-11-15T09:30:41.825Z,13.05
2022-11-15T09:35:05.384Z,12.88
2022-11-15T09:39:27.024Z,13.25
2022-11-15T09:43:57.536Z,13.32
2022-11-15T09:48:37.812Z,13.55
2022-11-15T09:53:02.521Z,13.70
2022-11-15T09:57:13.137Z,14.35
2022-11-15T10:01:28.356Z,14.32
2022-11-15T10:05:32.556Z,13.48
2022-11-15T10:09:44.832Z,14.25
2022-11-15T10:13:50.476Z,12.93
2022-11-15T10:18:11.134Z,14.27
2022-11-15T10:22:27.697Z,13.75
2022-11-15T10:26:32.181Z,14.38
2022-11-15T10:30:37.504Z,14.43
2022-11-15T10:34:40.593Z,13.38
2022-11-15T10:38:57.792Z,14.90
2022-11-15T10:43:15.505Z,14.05
2022-11-15T10:47:27.397Z,14.50
2022-11-15T10:51:32.083Z,13.30
2022-11-15T10:55:36.966Z,14.60
2022-11-15T10:59:47.751Z,14.27
2022-11-15T11:04:02.102Z,14.65
2022-11-15T11:08:24.610Z,13.43
2022-11-15T11:12:33.770Z,11.50
2022-11-15T11:16:50.679Z,13.10
2022-11-15T11:21:00.286Z,13.15
2022-11-15T11:25:21.757Z,12.90
2022-11-15T11:29:40.594Z,12.23
2022-11-15T11:33:53.712Z,12.43
2022-11-15T11:38:07.442Z,12.85
2022-11-15T11:42:19.015Z,15.10
2022-11-15T11:46:41.184Z,13.95
2022-11-15T11:50:48.031Z,14.60
2022-11-15T11:55:06.483Z,14.43
2022-11-15T11:59:21.361Z,13.30
2022-11-15T12:03:30.745Z,13.35
2022-11-15T12:07:38.113Z,16.42
2022-11-15T12:11:56.455Z,15.63
2022-11-15T12:16:09.273Z,15.43
2022-11-15T12:20:19.713Z,15.45
2022-11-15T12:24:29.002Z,14.63
2022-11-15T12:28:52.913Z,15.50
2022-11-15T12:33:03.884Z,14.80
2022-11-15T12:37:49.384Z,16.13
2022-11-15T12:42:42.931Z,16.65
2022-11-15T12:47:05.002Z,16.63
2022-11-15T12:51:08.088Z,16.70
2022-11-15T12:55:32.804Z,16.00
2022-11-15T12:59:54.232Z,16.95
2022-11-15T13:04:25.125Z,14.82
2022-11-15T13:08:42.287Z,16.50
2022-11-15T13:12:54.893Z,16.70
2022-11-15T13:17:01.560Z,16.38
2022-11-15T13:21:23.859Z,16.85
2022-11-15T13:26:03.746Z,16.73
2022-11-15T13:30:07.634Z,16.58
2022-11-15T13:34:50.072Z,15.93
2022-11-15T13:38:57.270Z,17.90
2022-11-15T13:43:01.495Z,16.67
2022-11-15T13:47:07.248Z,16.65
2022-11-15T13:51:20.124Z,18.73
2022-11-15T13:55:24.903Z,16.88
2022-11-15T13:59:31.024Z,16.90
2022-11-15T14:03:35.960Z,17.48
2022-11-15T14:07:44.472Z,18.58
2022-11-15T14:11:55.498Z,17.48
2022-11-15T14:16:17.925Z,17.40
2022-11-15T14:20:33.563Z,17.35
2022-11-15T14:24:38.788Z,18.38
2022-11-15T14:28:41.784Z,18.90
2022-11-15T14:32:47.631Z,18.17
2022-11-15T14:36:50.777Z,18.52
2022-11-15T14:40:56.821Z,17.70
2022-11-15T14:45:00.073Z,19.27
2022-11-15T14:49:03.635Z,17.55
2022-11-15T14:53:07.270Z,20.08
2022-11-15T14:57:11.639Z,19.60
2022-11-15T15:01:25.151Z,18.27
2022-11-15T15:05:33.449Z,16.95
2022-11-15T15:09:36.431Z,18.30
2022-11-15T15:13:40.816Z,18.55
2022-11-15T15:17:44.104Z,18.65
2022-11-15T15:21:47.066Z,18.70
2022-11-15T15:25:50.860Z,19.25
2022-11-15T15:29:55.270Z,21.25
2022-11-15T15:33:58.238Z,19.50
2022-11-15T15:38:01.241Z,19.02
2022-11-15T15:42:04.907Z,18.15
2022-11-15T15:46:13.695Z,18.02
2022-11-15T15:50:23.267Z,19.00
2022-11-15T15:54:26.244Z,18.77
2022-11-15T15:58:29.719Z,18.52
2022-11-15T16:02:40.166Z,18.15
2022-11-15T16:06:51.308Z,18.85
2022-11-15T16:10:54.584Z,18.92
2022-11-15T16:14:57.649Z,19.08
2022-11-15T16:19:02.349Z,17.90
2022-11-15T16:23:09.360Z,17.67
2022-11-15T16:27:15.841Z,17.17
2022-11-15T16:31:22.137Z,16.27
2022-11-15T16:35:26.811Z,16.13
2022-11-15T16:39:30.928Z,15.10
2022-11-15T16:43:33.958Z,14.45
2022-11-15T16:47:36.972Z,14.27
2022-11-15T16:51:41.714Z,12.48
2022-11-15T16:55:44.948Z,12.43
2022-11-15T16:59:48.230Z,12.40
2022-11-15T17:03:51.703Z,14.05
2022-11-15T17:07:56.237Z,13.75
2022-11-15T17:11:59.331Z,12.63
2022-11-15T17:16:06.956Z,14.10
2022-11-15T17:20:16.580Z,13.23
2022-11-15T17:24:21.749Z,13.95
2022-11-15T17:28:24.777Z,13.10
2022-11-15T17:32:27.791Z,13.27
2022-11-15T17:36:31.246Z,13.82
2022-11-15T17:40:35.755Z,13.85
2022-11-15T17:44:38.736Z,13.43
2022-11-15T17:48:43.245Z,13.50
2022-11-15T17:52:46.410Z,13.90
2022-11-15T17:56:50.883Z,14.52
2022-11-15T18:00:53.921Z,14.05
2022-11-15T18:04:57.094Z,14.10
2022-11-15T18:09:00.783Z,14.05
2022-11-15T18:13:05.526Z,13.50
2022-11-15T18:17:08.740Z,13.70
2022-11-15T18:21:13.967Z,14.25
2022-11-15T18:25:17.704Z,14.23
2022-11-15T18:29:24.510Z,14.85
2022-11-15T18:33:28.188Z,13.30
2022-11-15T18:37:31.311Z,13.68
2022-11-15T18:41:36.307Z,14.20
2022-11-15T18:45:40.701Z,14.48
2022-11-15T18:49:43.660Z,12.82
2022-11-15T18:53:47.976Z,14.50
2022-11-15T18:57:50.908Z,13.00
2022-11-15T19:01:56.967Z,12.10
2022-11-15T19:06:04.019Z,10.43
2022-11-15T19:10:08.251Z,10.35
2022-11-15T19:14:12.736Z,9.68
2022-11-15T19:18:20.463Z,8.88
2022-11-15T19:22:23.907Z,9.30
2022-11-15T19:26:37.020Z,8.93
2022-11-15T19:30:40.645Z,8.40
2022-11-15T19:34:44.988Z,8.68
2022-11-15T19:38:48.371Z,8.88
2022-11-15T19:42:51.555Z,7.85
2022-11-15T19:46:54.833Z,8.27
2022-11-15T19:51:01.783Z,7.93
2022-11-15T19:55:05.180Z,8.10
2022-11-15T19:59:08.702Z,8.00
2022-11-15T20:03:12.190Z,7.55
2022-11-15T20:07:16.917Z,7.47
2022-11-15T20:11:21.295Z,7.60
2022-11-15T20:15:24.535Z,8.07
2022-11-15T20:19:27.727Z,8.60
2022-11-15T20:23:32.265Z,9.98
2022-11-15T20:27:35.375Z,7.85
2022-11-15T20:31:38.424Z,8.98
2022-11-15T20:35:42.189Z,10.00
2022-11-15T20:39:46.588Z,9.82
2022-11-15T20:43:49.720Z,10.35
2022-11-15T20:47:55.882Z,10.68
2022-11-15T20:51:58.898Z,9.40
2022-11-15T20:56:07.796Z,10.82
2022-11-15T21:00:11.936Z,10.35
2022-11-15T21:04:15.085Z,10.43
2022-11-15T21:08:18.060Z,10.50
2022-11-15T21:12:21.466Z,11.02
2022-11-15T21:16:24.474Z,11.07
2022-11-15T21:20:28.114Z,12.02
2022-11-15T21:24:31.373Z,10.80
2022-11-15T21:28:36.089Z,11.10
2022-11-15T21:32:39.378Z,11.15
2022-11-15T21:36:42.427Z,11.07
2022-11-15T21:40:45.541Z,10.93
2022-11-15T21:44:49.999Z,10.73
2022-11-15T21:48:52.966Z,10.70
2022-11-15T21:52:56.173Z,10.55
2022-11-15T21:56:59.728Z,10.30
2022-11-15T22:01:24.338Z,10.25
2022-11-15T22:05:27.693Z,10.63
2022-11-15T22:09:30.826Z,9.80
2022-11-15T22:13:34.341Z,9.40
2022-11-15T22:17:56.086Z,9.98
2022-11-15T22:21:59.276Z,10.30
2022-11-15T22:26:03.055Z,10.48
2022-11-15T22:30:06.797Z,10.00
2022-11-15T22:34:11.404Z,10.68
2022-11-15T22:38:14.823Z,9.75
2022-11-15T22:42:23.232Z,9.90
2022-11-15T22:46:27.885Z,10.52
2022-11-15T22:50:32.454Z,11.50
2022-11-15T22:54:35.772Z,11.02
2022-11-15T22:58:38.990Z,10.73
2022-11-15T23:02:42.367Z,11.40
2022-11-15T23:06:47.084Z,10.40
2022-11-15T23:11:07.537Z,11.00
2022-11-15T23:15:11.379Z,11.90
2022-11-15T23:19:14.779Z,11.18
2022-11-15T23:23:19.690Z,11.20
2022-11-15T23:27:23.878Z,10.98
2022-11-15T23:31:44.175Z,10.43
2022-11-15T23:35:54.950Z,11.23
2022-11-15T23:39:59.495Z,11.13
2022-11-15T23:44:02.805Z,11.02
2022-11-15T23:48:06.726Z,10.70
2022-11-15T23:52:09.914Z,11.40
2022-11-15T23:56:16.682Z,11.13
